Fort Lauderdale Hollywood International Airport
KFLL : now visible

Airfield :











YOU CAN JOIN US ON...

 
LOGIN :

Register | Disclaimer

   EN    FR    IT 

 









Legend :    VFR   Marginal VFR   IFR   Intensive IFR   Very Intensive IFR
Visi :
Ceiling :
>= 8 km
>= 3000ft
5 to 8 km
1000 to 3000 ft
1500m to 5 km
500 to 1000 ft
800 to 1500m
200 to 500 ft
< 800m
< 200 ft
Symbols :   Thunderstorms  Fog  Heavy snow  Heavy precipitations  Wind > 20 kt






- Airport Elevation : 9 ft
- IATA code : FLL


KFLL - Fort Lauderdale Hollywood International

CURRENT METAR :
  • 251806Z 00000KT 4SM R10L/2600VP6000FT +RA BR BKN015 BKN060 OVC100 27/27 A2988 RMK AO2 VIS N-E 2 P0009 T02670267 $

EXPIRED METARs :
  • 251753Z 00000KT 10SM -RA BKN015 BKN060 OVC100 27/26 A2988 RMK AO2 RAE23B53 SLP118 P0000 60207 T02720261 10278 20244 58016 $
  • 251714Z 04005KT 10SM -RA BKN015 BKN060 OVC100 26/26 A2990 RMK AO2 OCNL LTGICCG DSNT N-NE CB DSNT N-NE MOV NE P0000 T02560256 $
  • 251653Z 02005KT 10SM VCTS -RA BKN015 BKN035 OVC100 26/26 A2991 RMK AO2 LTG DSNT NE TSE29 SLP128 OCNL LTGICCG DSNT N-NE CB DSNT N-NE MOV NE P0019 T02560256 $
  • 251635Z 35004KT 10SM VCTS -RA FEW015 SCT038 BKN100 OVC200 25/25 A2990 RMK AO2 TSE29 P0019 T02500250 $
  • 251628Z 34006KT 10SM -RA FEW015 SCT038 BKN100 OVC200 25/25 A2991 RMK AO2 P0019 T02500250 $
  • 251601Z VRB03KT 3SM R10L/2200VP6000FT +RA BR FEW009 BKN013 OVC038 24/24 A2991 RMK AO2 P0016 T02440244 $
  • 251556Z 34004KT 2SM R10L/3000VP6000FT +RA BR SCT009 BKN013 OVC019 24/24 A2991 RMK AO2 VIS 1V5 P0005 T02440244 $

TAF KFLL
Valid from the 25 at 18:00 until the 27 at 00:00 UTC


251755Z 2518/2624 14012KT P6SM SHRA VCTS SCT015 BKN040CB BKN120
TEMPO 2518/2519 4SM SHRA BKN015
FM260000 13009KT P6SM VCSH SCT015 SCT050 BKN200
FM261400 14012KT P6SM VCSH SCT015 SCT035 BKN150
KZMA FIR / North America



MET'MAP, your aeronautical weather chart ! - Copyright ORBIFLY December 2007 - Disclaimer

ORBIFLY MET'MAP TEAM :

Programming & Development : Alexandra Zaïnal
Concept & original design : Baudouin d'Aumeries
Assistance for programming : Marc-Olivier Méhu
Technical & hardware support : Manuel Goepfert

Contact : metmap@orbifly.com




SOURCES & CREDITS :

   NOAA       Earth
Advisory